createdAt,value
2018-12-25T00:01:54.378Z,2.60
2018-12-25T00:09:03.487Z,3.70
2018-12-25T00:11:32.697Z,3.23
2018-12-25T00:14:06.221Z,2.13
2018-12-25T00:25:23.109Z,3.80
2018-12-25T01:44:41.499Z,2.60
2018-12-25T01:47:33.891Z,2.87
2018-12-25T02:02:02.233Z,3.03
2018-12-25T02:04:31.400Z,3.07
2018-12-25T02:07:11.823Z,4.30
2018-12-25T02:09:52.910Z,2.60
2018-12-25T02:12:44.861Z,3.03
2018-12-25T02:15:20.540Z,3.60
2018-12-25T02:18:03.782Z,3.07
2018-12-25T02:20:37.747Z,2.97
2018-12-25T02:23:09.928Z,3.33
2018-12-25T02:25:48.271Z,3.57
2018-12-25T02:28:19.840Z,2.90
2018-12-25T02:30:55.475Z,2.60
2018-12-25T02:33:31.059Z,4.30
2018-12-25T02:36:06.612Z,2.20
2018-12-25T02:38:43.062Z,3.60
2018-12-25T02:41:18.179Z,3.90
2018-12-25T02:43:50.699Z,2.20
2018-12-25T02:46:44.273Z,4.67
2018-12-25T02:49:27.919Z,2.00
2018-12-25T02:52:19.907Z,2.47
2018-12-25T02:54:56.762Z,2.80
2018-12-25T02:57:30.385Z,2.27
2018-12-25T03:00:07.912Z,3.60
2018-12-25T03:02:41.517Z,2.33
2018-12-25T03:05:23.227Z,2.70
2018-12-25T03:08:00.001Z,2.93
2018-12-25T03:10:32.814Z,2.27
2018-12-25T03:13:04.750Z,2.80
2018-12-25T03:15:37.352Z,3.70
2018-12-25T03:18:11.625Z,2.87
2018-12-25T03:21:06.733Z,2.27
2018-12-25T03:23:48.723Z,3.33
2018-12-25T03:27:03.028Z,2.67
2018-12-25T03:29:34.515Z,3.40
2018-12-25T03:32:05.880Z,2.20
2018-12-25T03:34:45.816Z,4.30
2018-12-25T03:37:25.215Z,2.43
2018-12-25T03:40:04.462Z,3.17
2018-12-25T03:43:12.176Z,2.50
2018-12-25T03:45:47.260Z,2.37
2018-12-25T03:48:24.074Z,3.80
2018-12-25T03:51:02.937Z,2.67
2018-12-25T03:53:42.021Z,2.57
2018-12-25T03:56:14.585Z,2.03
2018-12-25T03:59:07.674Z,3.30
2018-12-25T04:01:42.281Z,3.07
2018-12-25T04:04:31.102Z,2.90
2018-12-25T04:07:11.683Z,3.70
2018-12-25T04:09:55.734Z,2.53
2018-12-25T04:12:26.302Z,3.17
2018-12-25T04:15:01.824Z,3.63
2018-12-25T04:17:38.465Z,3.10
2018-12-25T04:20:19.891Z,2.67
2018-12-25T04:22:52.674Z,2.17
2018-12-25T04:25:44.954Z,1.50
2018-12-25T04:28:21.182Z,2.73
2018-12-25T04:31:04.621Z,2.70
2018-12-25T04:36:42.164Z,2.50
2018-12-25T04:39:18.700Z,2.33
2018-12-25T04:44:57.694Z,3.07
2018-12-25T04:47:29.005Z,4.53
2018-12-25T04:50:15.354Z,2.47
2018-12-25T04:52:50.937Z,2.00
2018-12-25T04:55:21.304Z,1.47
2018-12-25T04:58:12.353Z,2.60
2018-12-25T05:00:43.415Z,4.73
2018-12-25T05:03:28.173Z,2.60
2018-12-25T05:06:08.218Z,1.60
2018-12-25T05:08:41.041Z,2.43
2018-12-25T05:11:12.989Z,3.30
2018-12-25T05:13:44.319Z,3.33
2018-12-25T05:16:37.645Z,2.67
2018-12-25T05:19:26.052Z,4.57
2018-12-25T05:22:49.612Z,3.20
2018-12-25T05:26:05.006Z,2.80
2018-12-25T05:29:05.820Z,2.60
2018-12-25T05:32:24.912Z,3.10
2018-12-25T05:35:48.011Z,2.67
2018-12-25T05:38:39.273Z,2.53
2018-12-25T05:41:10.819Z,3.97
2018-12-25T05:44:02.283Z,2.80
2018-12-25T05:50:17.807Z,2.57
2018-12-25T05:52:53.471Z,2.53
2018-12-25T05:55:30.725Z,3.03
2018-12-25T08:07:14.731Z,2.90
2018-12-25T08:10:46.288Z,2.03
2018-12-25T08:17:27.396Z,3.17
2018-12-25T08:24:11.808Z,4.43
2018-12-25T08:28:17.668Z,2.03
2018-12-25T09:18:54.521Z,3.30
2018-12-25T09:21:51.637Z,3.13
2018-12-25T09:24:40.339Z,4.93
2018-12-25T09:27:55.704Z,3.27
2018-12-25T09:30:57.059Z,3.17
2018-12-25T09:33:30.513Z,3.17
2018-12-25T09:36:10.315Z,3.33
2018-12-25T09:54:03.941Z,2.67
2018-12-25T09:57:12.882Z,2.67
2018-12-25T10:15:26.931Z,3.13
2018-12-25T10:41:52.371Z,4.67
2018-12-25T10:44:43.881Z,6.60
2018-12-25T10:50:34.335Z,4.90
2018-12-25T10:53:15.663Z,4.80
2018-12-25T10:55:47.764Z,2.93
2018-12-25T10:58:46.751Z,4.97
2018-12-25T11:01:28.777Z,5.70
2018-12-25T11:28:01.564Z,5.17
2018-12-25T11:30:24.634Z,5.83
2018-12-25T11:33:05.038Z,5.10
2018-12-25T11:35:46.365Z,6.00
2018-12-25T11:38:18.305Z,5.67
2018-12-25T11:41:08.828Z,4.27
2018-12-25T11:43:43.003Z,6.10
2018-12-25T11:46:21.895Z,4.63
2018-12-25T11:48:51.441Z,4.00
2018-12-25T11:51:21.218Z,7.07
2018-12-25T11:53:50.582Z,4.67
2018-12-25T11:56:24.526Z,5.27
2018-12-25T11:58:53.933Z,5.63
2018-12-25T12:04:47.846Z,3.77
2018-12-25T12:07:17.595Z,5.63
2018-12-25T12:09:55.784Z,4.20
2018-12-25T12:12:29.937Z,5.23
2018-12-25T12:15:04.700Z,6.60
2018-12-25T12:17:46.908Z,5.63
2018-12-25T12:20:26.812Z,4.20
2018-12-25T12:23:04.648Z,3.73
2018-12-25T12:25:33.944Z,4.10
2018-12-25T12:28:03.169Z,4.77
2018-12-25T12:30:32.437Z,5.87
2018-12-25T12:33:01.794Z,4.43
2018-12-25T12:35:30.932Z,3.37
2018-12-25T12:37:59.929Z,5.00
2018-12-25T12:40:29.513Z,5.23
2018-12-25T12:42:58.529Z,4.73
2018-12-25T12:45:27.518Z,3.77
2018-12-25T12:47:58.912Z,5.30
2018-12-25T12:50:28.238Z,6.80
2018-12-25T12:52:57.266Z,4.13
2018-12-25T12:55:26.333Z,5.03
2018-12-25T12:57:55.338Z,7.80
2018-12-25T13:00:24.656Z,3.53
2018-12-25T13:02:56.879Z,3.90
2018-12-25T13:05:27.515Z,4.90
2018-12-25T13:07:56.676Z,5.00
2018-12-25T13:10:31.615Z,4.43
2018-12-25T13:13:18.168Z,5.20
2018-12-25T13:15:55.320Z,5.77
2018-12-25T13:18:27.920Z,5.17
2018-12-25T13:20:57.678Z,6.23
2018-12-25T13:23:27.998Z,4.90
2018-12-25T13:25:57.572Z,2.93
2018-12-25T13:28:27.576Z,4.20
2018-12-25T13:30:56.712Z,3.43
2018-12-25T13:33:25.741Z,4.30
2018-12-25T13:35:54.771Z,4.50
2018-12-25T13:38:24.595Z,6.47
2018-12-25T13:40:53.760Z,4.03
2018-12-25T13:43:23.553Z,4.30
2018-12-25T13:45:52.578Z,5.30
2018-12-25T13:48:22.170Z,4.30
2018-12-25T13:50:52.823Z,4.50
2018-12-25T13:53:23.986Z,3.63
2018-12-25T13:55:54.665Z,3.13
2018-12-25T13:58:24.262Z,5.63
2018-12-25T14:00:53.661Z,4.70
2018-12-25T14:03:22.737Z,4.60
2018-12-25T14:05:51.791Z,4.03
2018-12-25T14:08:21.432Z,4.17
2018-12-25T14:10:50.801Z,3.90
2018-12-25T14:13:20.294Z,3.67
2018-12-25T14:15:49.701Z,6.03
2018-12-25T14:18:18.924Z,4.33
2018-12-25T14:20:48.457Z,4.60
2018-12-25T14:23:17.718Z,3.50
2018-12-25T14:25:46.806Z,4.00
2018-12-25T14:28:15.886Z,4.13
2018-12-25T14:30:44.837Z,4.40
2018-12-25T14:33:13.901Z,3.40
2018-12-25T14:35:42.849Z,7.60
2018-12-25T14:38:12.287Z,5.77
2018-12-25T14:40:41.276Z,4.87
2018-12-25T14:43:10.326Z,3.87
2018-12-25T14:45:40.232Z,5.10
2018-12-25T14:48:09.389Z,5.00
2018-12-25T14:50:39.303Z,4.40
2018-12-25T14:53:09.248Z,4.07
2018-12-25T14:55:39.229Z,5.03
2018-12-25T14:58:09.051Z,5.00
2018-12-25T15:00:38.409Z,4.80
2018-12-25T15:03:07.608Z,5.83
2018-12-25T15:05:37.250Z,3.27
2018-12-25T15:08:06.686Z,5.27
2018-12-25T15:10:36.252Z,4.57
2018-12-25T15:13:06.979Z,5.47
2018-12-25T15:15:37.382Z,5.23
2018-12-25T15:18:06.923Z,3.63
2018-12-25T15:20:36.239Z,4.57
2018-12-25T15:23:06.291Z,5.10
2018-12-25T15:25:36.036Z,4.20
2018-12-25T15:28:06.695Z,5.17
2018-12-25T15:30:36.656Z,4.97
2018-12-25T15:33:06.031Z,5.57
2018-12-25T15:35:36.229Z,4.90
2018-12-25T15:38:06.605Z,4.70
2018-12-25T15:40:38.521Z,4.63
2018-12-25T15:43:07.795Z,4.20
2018-12-25T15:45:37.185Z,5.47
2018-12-25T15:48:06.635Z,4.23
2018-12-25T15:50:35.807Z,5.13
2018-12-25T15:53:05.735Z,4.40
2018-12-25T15:55:35.161Z,4.10
2018-12-25T15:58:05.149Z,4.83
2018-12-25T16:00:34.630Z,4.37
2018-12-25T16:03:04.068Z,6.20
2018-12-25T16:05:33.793Z,4.20
2018-12-25T16:08:04.058Z,5.80
2018-12-25T16:10:33.236Z,5.00
2018-12-25T16:13:02.788Z,4.40
2018-12-25T16:15:32.474Z,6.20
2018-12-25T16:18:02.159Z,6.07
2018-12-25T16:20:32.534Z,4.20
2018-12-25T16:23:03.817Z,6.03
2018-12-25T16:25:33.366Z,4.93
2018-12-25T16:28:03.862Z,6.47
2018-12-25T16:30:33.910Z,5.70
2018-12-25T16:33:03.694Z,6.67
2018-12-25T16:35:33.339Z,6.40
2018-12-25T16:38:03.026Z,5.30
2018-12-25T16:40:32.819Z,8.17
2018-12-25T16:43:03.366Z,6.17
2018-12-25T16:45:33.390Z,6.07
2018-12-25T16:48:03.563Z,7.60
2018-12-25T16:50:33.420Z,5.93
2018-12-25T16:53:03.055Z,5.93
2018-12-25T16:55:34.082Z,5.80
2018-12-25T16:58:03.820Z,7.00
2018-12-25T17:00:33.861Z,5.70
2018-12-25T17:03:03.792Z,6.97
2018-12-25T17:05:34.094Z,14.40
2018-12-25T17:08:04.418Z,11.70
2018-12-25T17:10:35.267Z,6.70
2018-12-25T17:13:05.823Z,6.50
2018-12-25T17:15:36.403Z,7.43
2018-12-25T17:18:07.071Z,5.90
2018-12-25T17:20:37.839Z,5.40
2018-12-25T17:23:08.497Z,5.47
2018-12-25T17:25:39.455Z,6.40
2018-12-25T17:28:09.308Z,5.27
2018-12-25T17:30:39.511Z,7.60
2018-12-25T17:33:10.051Z,5.60
2018-12-25T17:35:40.291Z,6.07
2018-12-25T17:38:11.897Z,7.37
2018-12-25T17:40:44.194Z,7.63
2018-12-25T17:43:15.000Z,6.17
2018-12-25T17:45:45.090Z,8.00
2018-12-25T17:48:15.758Z,7.17
2018-12-25T17:50:49.653Z,5.27
2018-12-25T17:53:20.678Z,7.20
2018-12-25T17:55:52.726Z,5.93
2018-12-25T17:58:25.793Z,7.87
2018-12-25T18:00:58.237Z,6.83
2018-12-25T18:03:29.327Z,5.93
2018-12-25T18:06:00.466Z,7.00
2018-12-25T18:08:31.512Z,7.10
2018-12-25T18:11:03.631Z,6.37
2018-12-25T18:13:34.923Z,5.50
2018-12-25T18:16:06.654Z,6.93
2018-12-25T18:18:37.435Z,7.50
2018-12-25T18:21:11.406Z,8.70
2018-12-25T18:23:45.975Z,7.27
2018-12-25T18:26:19.182Z,5.90
2018-12-25T18:28:56.905Z,5.23
2018-12-25T18:31:29.412Z,7.50
2018-12-25T18:34:02.235Z,7.47
2018-12-25T18:36:34.151Z,7.07
2018-12-25T18:39:06.220Z,6.40
2018-12-25T18:41:37.897Z,6.10
2018-12-25T18:44:09.252Z,5.33
2018-12-25T18:46:39.967Z,5.67
2018-12-25T18:49:12.013Z,5.80
2018-12-25T18:51:43.593Z,6.17
2018-12-25T18:54:15.138Z,5.60
2018-12-25T18:56:46.729Z,7.47
2018-12-25T18:59:18.572Z,8.60
2018-12-25T19:01:49.044Z,7.80
2018-12-25T19:04:21.783Z,6.37
2018-12-25T19:06:54.586Z,8.90
2018-12-25T19:09:30.004Z,7.63
2018-12-25T19:12:02.314Z,8.20
2018-12-25T19:14:34.872Z,7.87
2018-12-25T19:17:08.884Z,8.20
2018-12-25T19:19:44.754Z,6.30
2018-12-25T19:22:16.935Z,7.90
2018-12-25T19:24:47.897Z,6.17
2018-12-25T19:27:20.366Z,6.43
2018-12-25T19:29:54.995Z,6.00
2018-12-25T19:32:28.006Z,4.80
2018-12-25T19:34:58.793Z,6.20
2018-12-25T19:37:31.665Z,7.33
2018-12-25T19:40:04.867Z,6.20
2018-12-25T19:42:36.643Z,6.73
2018-12-25T19:45:08.727Z,6.83
2018-12-25T19:47:40.386Z,8.13
2018-12-25T19:50:11.945Z,6.40
2018-12-25T19:52:43.909Z,10.80
2018-12-25T19:55:14.602Z,9.57
2018-12-25T19:57:45.380Z,13.37
2018-12-25T20:00:17.846Z,9.80
2018-12-25T20:02:56.591Z,8.57
2018-12-25T20:06:03.202Z,7.97
2018-12-25T20:09:26.592Z,7.40
2018-12-25T20:12:42.601Z,6.20
2018-12-25T20:15:40.095Z,7.17
2018-12-25T20:18:59.774Z,7.63
2018-12-25T20:22:02.195Z,5.83
2018-12-25T20:24:56.676Z,5.40
2018-12-25T20:28:14.563Z,7.30
2018-12-25T20:31:30.213Z,4.70
2018-12-25T20:34:52.687Z,6.50
2018-12-25T20:38:20.416Z,6.50
2018-12-25T20:41:37.131Z,4.80
2018-12-25T20:44:50.054Z,4.83
2018-12-25T20:47:59.327Z,6.20
2018-12-25T20:51:07.852Z,6.73
2018-12-25T20:54:34.449Z,5.73
2018-12-25T20:57:49.684Z,5.40
2018-12-25T21:01:01.362Z,7.40
2018-12-25T21:04:12.403Z,5.50
2018-12-25T21:07:33.652Z,5.60
2018-12-25T21:10:48.095Z,7.43
2018-12-25T21:13:49.293Z,4.97
2018-12-25T21:17:18.090Z,6.47
2018-12-25T21:20:31.356Z,5.40
2018-12-25T21:23:36.304Z,9.03
2018-12-25T21:26:41.205Z,11.10
2018-12-25T21:29:11.884Z,4.77
2018-12-25T21:31:41.495Z,4.83
2018-12-25T21:34:11.413Z,5.03
2018-12-25T21:36:46.253Z,4.97
2018-12-25T21:39:16.342Z,4.60
2018-12-25T21:41:46.048Z,5.10
2018-12-25T21:44:15.869Z,5.50
2018-12-25T21:46:45.758Z,6.53
2018-12-25T21:49:15.618Z,5.83
2018-12-25T21:51:46.061Z,8.53
2018-12-25T21:54:17.333Z,6.87
2018-12-25T21:56:47.113Z,5.20
2018-12-25T21:59:18.554Z,9.20
2018-12-25T22:01:47.832Z,10.67
2018-12-25T22:04:17.471Z,8.33
2018-12-25T22:06:47.101Z,6.70
2018-12-25T22:09:16.816Z,5.10
2018-12-25T22:11:46.090Z,5.70
2018-12-25T22:14:15.386Z,8.73
2018-12-25T22:16:44.764Z,5.40
2018-12-25T22:19:14.238Z,6.17
2018-12-25T22:21:43.646Z,5.77
2018-12-25T22:24:13.000Z,4.73
2018-12-25T22:26:42.453Z,3.77
2018-12-25T22:29:11.869Z,3.90
2018-12-25T22:31:41.066Z,5.43
2018-12-25T22:34:10.367Z,7.43
2018-12-25T22:36:39.642Z,6.40
2018-12-25T22:39:08.870Z,8.43
2018-12-25T22:41:38.379Z,5.37
2018-12-25T22:44:07.663Z,6.47
2018-12-25T22:46:36.887Z,4.83
2018-12-25T22:49:07.255Z,6.23
2018-12-25T22:51:36.673Z,4.97
2018-12-25T22:54:06.013Z,4.80
2018-12-25T22:56:35.333Z,11.17
2018-12-25T22:59:10.117Z,6.50
2018-12-25T23:01:39.427Z,5.47
2018-12-25T23:04:08.757Z,9.68
2018-12-25T23:06:38.157Z,5.87
2018-12-25T23:09:07.959Z,8.73
2018-12-25T23:11:37.249Z,6.07
2018-12-25T23:14:06.587Z,9.88
2018-12-25T23:16:35.834Z,8.00
2018-12-25T23:19:05.365Z,4.70
2018-12-25T23:21:34.792Z,6.25
2018-12-25T23:24:04.191Z,5.78
2018-12-25T23:26:33.633Z,3.45
2018-12-25T23:29:03.342Z,7.33
2018-12-25T23:31:32.881Z,6.17
2018-12-25T23:34:02.220Z,6.47
2018-12-25T23:36:31.776Z,8.65
2018-12-25T23:39:01.175Z,5.58
2018-12-25T23:41:30.479Z,5.20
2018-12-25T23:43:59.783Z,6.67
2018-12-25T23:46:29.022Z,3.83
2018-12-25T23:48:58.273Z,5.75
2018-12-25T23:51:27.588Z,4.90
2018-12-25T23:53:56.866Z,6.22
2018-12-25T23:56:26.179Z,4.93
2018-12-25T23:58:56.162Z,4.55
